sensor_id;sensor_type;location;lat;lon;timestamp;P1;durP1;ratioP1;P2;durP2;ratioP2
6642;SDS011;3357;48.050;7.800;2023-06-22T00:00:51;9.90;;;6.30;;
6642;SDS011;3357;48.050;7.800;2023-06-22T00:03:17;14.27;;;8.30;;
6642;SDS011;3357;48.050;7.800;2023-06-22T00:05:43;12.50;;;7.43;;
6642;SDS011;3357;48.050;7.800;2023-06-22T00:08:09;9.47;;;7.30;;
6642;SDS011;3357;48.050;7.800;2023-06-22T00:10:34;11.70;;;7.90;;
6642;SDS011;3357;48.050;7.800;2023-06-22T00:13:00;13.43;;;7.37;;
6642;SDS011;3357;48.050;7.800;2023-06-22T00:15:25;13.20;;;7.50;;
6642;SDS011;3357;48.050;7.800;2023-06-22T00:17:50;10.53;;;7.47;;
6642;SDS011;3357;48.050;7.800;2023-06-22T00:20:16;14.20;;;7.40;;
6642;SDS011;3357;48.050;7.800;2023-06-22T00:22:43;8.17;;;7.20;;
6642;SDS011;3357;48.050;7.800;2023-06-22T00:25:12;12.10;;;7.93;;
6642;SDS011;3357;48.050;7.800;2023-06-22T00:27:38;9.37;;;7.70;;
6642;SDS011;3357;48.050;7.800;2023-06-22T00:30:03;9.10;;;7.47;;
6642;SDS011;3357;48.050;7.800;2023-06-22T00:32:29;11.77;;;7.20;;
6642;SDS011;3357;48.050;7.800;2023-06-22T00:34:54;14.87;;;7.07;;
6642;SDS011;3357;48.050;7.800;2023-06-22T00:37:19;9.90;;;6.67;;
6642;SDS011;3357;48.050;7.800;2023-06-22T00:39:47;14.40;;;8.63;;
6642;SDS011;3357;48.050;7.800;2023-06-22T00:42:13;14.70;;;8.40;;
6642;SDS011;3357;48.050;7.800;2023-06-22T00:44:38;13.33;;;8.40;;
6642;SDS011;3357;48.050;7.800;2023-06-22T00:47:03;22.43;;;10.33;;
6642;SDS011;3357;48.050;7.800;2023-06-22T00:49:29;12.63;;;7.90;;
6642;SDS011;3357;48.050;7.800;2023-06-22T00:51:55;23.60;;;10.00;;
6642;SDS011;3357;48.050;7.800;2023-06-22T00:54:21;15.33;;;10.43;;
6642;SDS011;3357;48.050;7.800;2023-06-22T00:56:50;15.37;;;10.23;;
6642;SDS011;3357;48.050;7.800;2023-06-22T00:59:19;20.20;;;9.97;;
6642;SDS011;3357;48.050;7.800;2023-06-22T01:01:44;21.17;;;11.20;;
6642;SDS011;3357;48.050;7.800;2023-06-22T01:04:10;14.70;;;9.23;;
6642;SDS011;3357;48.050;7.800;2023-06-22T01:06:38;14.53;;;9.40;;
6642;SDS011;3357;48.050;7.800;2023-06-22T01:09:13;13.90;;;7.97;;
6642;SDS011;3357;48.050;7.800;2023-06-22T01:11:49;13.90;;;9.63;;
6642;SDS011;3357;48.050;7.800;2023-06-22T01:14:20;19.57;;;9.10;;
6642;SDS011;3357;48.050;7.800;2023-06-22T01:16:49;18.70;;;10.00;;
6642;SDS011;3357;48.050;7.800;2023-06-22T01:19:24;12.37;;;9.00;;
6642;SDS011;3357;48.050;7.800;2023-06-22T01:21:57;16.33;;;8.93;;
6642;SDS011;3357;48.050;7.800;2023-06-22T01:24:24;17.20;;;10.07;;
6642;SDS011;3357;48.050;7.800;2023-06-22T01:27:03;17.20;;;11.20;;
6642;SDS011;3357;48.050;7.800;2023-06-22T01:29:35;20.33;;;11.67;;
6642;SDS011;3357;48.050;7.800;2023-06-22T01:32:01;16.60;;;10.93;;
6642;SDS011;3357;48.050;7.800;2023-06-22T01:34:27;19.40;;;11.13;;
6642;SDS011;3357;48.050;7.800;2023-06-22T01:36:54;14.57;;;9.63;;
6642;SDS011;3357;48.050;7.800;2023-06-22T01:39:19;20.57;;;11.77;;
6642;SDS011;3357;48.050;7.800;2023-06-22T01:41:47;26.40;;;12.80;;
6642;SDS011;3357;48.050;7.800;2023-06-22T01:44:13;29.07;;;12.47;;
6642;SDS011;3357;48.050;7.800;2023-06-22T01:46:38;19.90;;;11.80;;
6642;SDS011;3357;48.050;7.800;2023-06-22T01:49:04;17.70;;;11.60;;
6642;SDS011;3357;48.050;7.800;2023-06-22T01:51:31;17.60;;;11.27;;
6642;SDS011;3357;48.050;7.800;2023-06-22T01:53:56;19.10;;;11.27;;
6642;SDS011;3357;48.050;7.800;2023-06-22T01:56:21;19.90;;;12.33;;
6642;SDS011;3357;48.050;7.800;2023-06-22T01:58:51;19.80;;;10.53;;
6642;SDS011;3357;48.050;7.800;2023-06-22T02:01:28;21.67;;;9.13;;
6642;SDS011;3357;48.050;7.800;2023-06-22T02:04:02;18.17;;;9.87;;
6642;SDS011;3357;48.050;7.800;2023-06-22T02:06:33;20.63;;;10.00;;
6642;SDS011;3357;48.050;7.800;2023-06-22T02:09:02;20.17;;;10.60;;
6642;SDS011;3357;48.050;7.800;2023-06-22T02:11:32;23.70;;;11.30;;
6642;SDS011;3357;48.050;7.800;2023-06-22T02:13:58;15.23;;;9.57;;
6642;SDS011;3357;48.050;7.800;2023-06-22T02:16:24;15.63;;;8.67;;
6642;SDS011;3357;48.050;7.800;2023-06-22T02:18:50;12.83;;;9.17;;
6642;SDS011;3357;48.050;7.800;2023-06-22T02:21:16;16.33;;;8.40;;
6642;SDS011;3357;48.050;7.800;2023-06-22T02:23:42;14.50;;;8.27;;
6642;SDS011;3357;48.050;7.800;2023-06-22T02:26:08;17.50;;;8.60;;
6642;SDS011;3357;48.050;7.800;2023-06-22T02:28:33;20.67;;;9.60;;
6642;SDS011;3357;48.050;7.800;2023-06-22T02:30:58;12.20;;;9.20;;
6642;SDS011;3357;48.050;7.800;2023-06-22T02:33:24;16.97;;;9.27;;
6642;SDS011;3357;48.050;7.800;2023-06-22T02:35:49;12.10;;;8.23;;
6642;SDS011;3357;48.050;7.800;2023-06-22T02:38:14;10.60;;;7.40;;
6642;SDS011;3357;48.050;7.800;2023-06-22T02:40:40;13.80;;;8.30;;
6642;SDS011;3357;48.050;7.800;2023-06-22T02:43:05;13.73;;;7.80;;
6642;SDS011;3357;48.050;7.800;2023-06-22T02:45:30;11.70;;;8.20;;
6642;SDS011;3357;48.050;7.800;2023-06-22T02:47:56;21.73;;;8.27;;
6642;SDS011;3357;48.050;7.800;2023-06-22T02:50:21;20.33;;;8.03;;
6642;SDS011;3357;48.050;7.800;2023-06-22T02:52:46;13.47;;;8.13;;
6642;SDS011;3357;48.050;7.800;2023-06-22T02:55:11;15.80;;;8.93;;
6642;SDS011;3357;48.050;7.800;2023-06-22T02:57:37;13.97;;;7.07;;
6642;SDS011;3357;48.050;7.800;2023-06-22T03:00:03;22.03;;;9.50;;
6642;SDS011;3357;48.050;7.800;2023-06-22T03:02:40;19.43;;;8.30;;
6642;SDS011;3357;48.050;7.800;2023-06-22T03:05:05;20.77;;;8.63;;
6642;SDS011;3357;48.050;7.800;2023-06-22T03:07:31;16.43;;;7.47;;
6642;SDS011;3357;48.050;7.800;2023-06-22T03:09:56;15.60;;;7.60;;
6642;SDS011;3357;48.050;7.800;2023-06-22T03:12:21;19.13;;;8.00;;
6642;SDS011;3357;48.050;7.800;2023-06-22T03:14:47;10.27;;;7.13;;
6642;SDS011;3357;48.050;7.800;2023-06-22T03:17:12;16.40;;;7.30;;
6642;SDS011;3357;48.050;7.800;2023-06-22T03:19:37;18.20;;;7.20;;
6642;SDS011;3357;48.050;7.800;2023-06-22T03:22:02;10.80;;;5.73;;
6642;SDS011;3357;48.050;7.800;2023-06-22T03:24:28;14.77;;;5.70;;
6642;SDS011;3357;48.050;7.800;2023-06-22T03:26:55;11.13;;;6.70;;
6642;SDS011;3357;48.050;7.800;2023-06-22T03:29:21;13.97;;;5.70;;
6642;SDS011;3357;48.050;7.800;2023-06-22T03:31:46;14.43;;;5.70;;
6642;SDS011;3357;48.050;7.800;2023-06-22T03:34:12;14.03;;;6.00;;
6642;SDS011;3357;48.050;7.800;2023-06-22T03:36:37;13.90;;;5.53;;
6642;SDS011;3357;48.050;7.800;2023-06-22T03:39:02;13.70;;;5.60;;
6642;SDS011;3357;48.050;7.800;2023-06-22T03:41:28;12.20;;;7.30;;
6642;SDS011;3357;48.050;7.800;2023-06-22T03:43:53;15.03;;;6.50;;
6642;SDS011;3357;48.050;7.800;2023-06-22T03:46:18;17.90;;;6.70;;
6642;SDS011;3357;48.050;7.800;2023-06-22T03:48:45;9.47;;;6.90;;
6642;SDS011;3357;48.050;7.800;2023-06-22T03:51:10;12.93;;;6.60;;
6642;SDS011;3357;48.050;7.800;2023-06-22T03:53:35;14.10;;;7.37;;
6642;SDS011;3357;48.050;7.800;2023-06-22T03:56:00;12.20;;;6.80;;
6642;SDS011;3357;48.050;7.800;2023-06-22T03:58:26;7.63;;;6.70;;
6642;SDS011;3357;48.050;7.800;2023-06-22T04:00:51;11.77;;;6.87;;
6642;SDS011;3357;48.050;7.800;2023-06-22T04:03:17;12.17;;;7.03;;
6642;SDS011;3357;48.050;7.800;2023-06-22T04:05:46;12.47;;;6.77;;
6642;SDS011;3357;48.050;7.800;2023-06-22T04:08:12;8.83;;;6.77;;
6642;SDS011;3357;48.050;7.800;2023-06-22T04:10:38;16.33;;;6.97;;
6642;SDS011;3357;48.050;7.800;2023-06-22T04:13:03;15.90;;;6.70;;
6642;SDS011;3357;48.050;7.800;2023-06-22T04:15:28;9.13;;;7.00;;
6642;SDS011;3357;48.050;7.800;2023-06-22T04:17:54;13.60;;;6.77;;
6642;SDS011;3357;48.050;7.800;2023-06-22T04:20:20;8.87;;;7.13;;
6642;SDS011;3357;48.050;7.800;2023-06-22T04:22:45;9.90;;;6.70;;
6642;SDS011;3357;48.050;7.800;2023-06-22T04:25:11;10.00;;;7.00;;
6642;SDS011;3357;48.050;7.800;2023-06-22T04:27:36;10.93;;;7.17;;
6642;SDS011;3357;48.050;7.800;2023-06-22T04:30:02;12.23;;;7.27;;
6642;SDS011;3357;48.050;7.800;2023-06-22T04:32:28;11.17;;;7.23;;
6642;SDS011;3357;48.050;7.800;2023-06-22T04:34:53;11.37;;;6.90;;
6642;SDS011;3357;48.050;7.800;2023-06-22T04:37:19;13.20;;;6.23;;
6642;SDS011;3357;48.050;7.800;2023-06-22T04:39:44;12.53;;;6.63;;
6642;SDS011;3357;48.050;7.800;2023-06-22T04:42:09;10.60;;;6.40;;
6642;SDS011;3357;48.050;7.800;2023-06-22T04:44:34;12.80;;;7.30;;
6642;SDS011;3357;48.050;7.800;2023-06-22T04:47:00;11.53;;;6.53;;
6642;SDS011;3357;48.050;7.800;2023-06-22T04:49:28;12.00;;;6.70;;
6642;SDS011;3357;48.050;7.800;2023-06-22T04:52:01;9.80;;;6.97;;
6642;SDS011;3357;48.050;7.800;2023-06-22T04:54:28;11.57;;;8.13;;
6642;SDS011;3357;48.050;7.800;2023-06-22T04:56:53;13.97;;;8.10;;
6642;SDS011;3357;48.050;7.800;2023-06-22T04:59:26;14.83;;;8.47;;
6642;SDS011;3357;48.050;7.800;2023-06-22T05:01:54;14.10;;;9.17;;
6642;SDS011;3357;48.050;7.800;2023-06-22T05:04:20;16.03;;;8.93;;
6642;SDS011;3357;48.050;7.800;2023-06-22T05:06:45;13.00;;;8.73;;
6642;SDS011;3357;48.050;7.800;2023-06-22T05:09:10;15.47;;;10.20;;
6642;SDS011;3357;48.050;7.800;2023-06-22T05:11:37;11.03;;;8.07;;
6642;SDS011;3357;48.050;7.800;2023-06-22T05:14:02;12.97;;;7.47;;
6642;SDS011;3357;48.050;7.800;2023-06-22T05:16:28;18.87;;;10.10;;
6642;SDS011;3357;48.050;7.800;2023-06-22T05:18:53;13.80;;;9.70;;
6642;SDS011;3357;48.050;7.800;2023-06-22T05:21:23;15.63;;;11.03;;
6642;SDS011;3357;48.050;7.800;2023-06-22T05:23:49;17.27;;;10.90;;
6642;SDS011;3357;48.050;7.800;2023-06-22T05:26:15;18.57;;;12.30;;
6642;SDS011;3357;48.050;7.800;2023-06-22T05:28:40;23.07;;;12.20;;
6642;SDS011;3357;48.050;7.800;2023-06-22T05:31:05;19.00;;;11.50;;
6642;SDS011;3357;48.050;7.800;2023-06-22T05:33:31;18.70;;;11.70;;
6642;SDS011;3357;48.050;7.800;2023-06-22T05:35:56;14.73;;;12.47;;
6642;SDS011;3357;48.050;7.800;2023-06-22T05:38:21;18.60;;;11.40;;
6642;SDS011;3357;48.050;7.800;2023-06-22T05:40:46;20.70;;;11.87;;
6642;SDS011;3357;48.050;7.800;2023-06-22T05:43:12;22.57;;;13.40;;
6642;SDS011;3357;48.050;7.800;2023-06-22T05:45:37;19.33;;;12.53;;
6642;SDS011;3357;48.050;7.800;2023-06-22T05:48:02;20.90;;;13.70;;
6642;SDS011;3357;48.050;7.800;2023-06-22T05:50:27;22.13;;;15.20;;
6642;SDS011;3357;48.050;7.800;2023-06-22T05:52:53;23.10;;;15.90;;
6642;SDS011;3357;48.050;7.800;2023-06-22T05:55:18;23.93;;;15.40;;
6642;SDS011;3357;48.050;7.800;2023-06-22T05:57:44;19.37;;;14.33;;
6642;SDS011;3357;48.050;7.800;2023-06-22T06:00:09;23.87;;;15.03;;
6642;SDS011;3357;48.050;7.800;2023-06-22T06:02:36;18.23;;;13.47;;
6642;SDS011;3357;48.050;7.800;2023-06-22T06:05:01;21.97;;;15.50;;
6642;SDS011;3357;48.050;7.800;2023-06-22T06:07:28;18.63;;;13.73;;
6642;SDS011;3357;48.050;7.800;2023-06-22T06:09:53;29.03;;;16.03;;
6642;SDS011;3357;48.050;7.800;2023-06-22T06:12:19;23.10;;;16.70;;
6642;SDS011;3357;48.050;7.800;2023-06-22T06:14:44;25.57;;;15.37;;
6642;SDS011;3357;48.050;7.800;2023-06-22T06:17:09;22.47;;;14.33;;
6642;SDS011;3357;48.050;7.800;2023-06-22T06:19:34;24.70;;;15.87;;
6642;SDS011;3357;48.050;7.800;2023-06-22T06:22:00;22.00;;;12.50;;
6642;SDS011;3357;48.050;7.800;2023-06-22T06:24:25;19.80;;;12.23;;
6642;SDS011;3357;48.050;7.800;2023-06-22T06:26:51;18.90;;;12.07;;
6642;SDS011;3357;48.050;7.800;2023-06-22T06:29:16;22.73;;;13.00;;
6642;SDS011;3357;48.050;7.800;2023-06-22T06:31:41;19.10;;;11.13;;
6642;SDS011;3357;48.050;7.800;2023-06-22T06:34:07;17.40;;;11.37;;
6642;SDS011;3357;48.050;7.800;2023-06-22T06:36:32;16.70;;;11.47;;
6642;SDS011;3357;48.050;7.800;2023-06-22T06:38:57;16.83;;;11.00;;
6642;SDS011;3357;48.050;7.800;2023-06-22T06:41:23;22.77;;;11.50;;
6642;SDS011;3357;48.050;7.800;2023-06-22T06:43:48;18.07;;;12.70;;
6642;SDS011;3357;48.050;7.800;2023-06-22T06:46:14;22.70;;;12.23;;
6642;SDS011;3357;48.050;7.800;2023-06-22T06:48:39;19.53;;;10.30;;
6642;SDS011;3357;48.050;7.800;2023-06-22T06:51:04;19.53;;;11.33;;
6642;SDS011;3357;48.050;7.800;2023-06-22T06:53:30;20.10;;;10.90;;
6642;SDS011;3357;48.050;7.800;2023-06-22T06:55:56;15.77;;;10.00;;
6642;SDS011;3357;48.050;7.800;2023-06-22T06:58:21;15.87;;;9.50;;
6642;SDS011;3357;48.050;7.800;2023-06-22T07:00:47;16.10;;;9.70;;
6642;SDS011;3357;48.050;7.800;2023-06-22T07:03:13;18.13;;;10.20;;
6642;SDS011;3357;48.050;7.800;2023-06-22T07:05:38;23.70;;;11.00;;
6642;SDS011;3357;48.050;7.800;2023-06-22T07:08:04;26.27;;;13.37;;
6642;SDS011;3357;48.050;7.800;2023-06-22T07:10:29;20.93;;;12.50;;
6642;SDS011;3357;48.050;7.800;2023-06-22T07:12:54;21.53;;;13.17;;
6642;SDS011;3357;48.050;7.800;2023-06-22T07:15:20;21.40;;;11.73;;
6642;SDS011;3357;48.050;7.800;2023-06-22T07:17:45;21.13;;;12.00;;
6642;SDS011;3357;48.050;7.800;2023-06-22T07:20:10;18.67;;;12.23;;
6642;SDS011;3357;48.050;7.800;2023-06-22T07:22:39;24.20;;;12.00;;
6642;SDS011;3357;48.050;7.800;2023-06-22T07:25:05;16.50;;;10.30;;
6642;SDS011;3357;48.050;7.800;2023-06-22T07:27:34;18.00;;;11.03;;
6642;SDS011;3357;48.050;7.800;2023-06-22T07:30:02;20.63;;;10.80;;
6642;SDS011;3357;48.050;7.800;2023-06-22T07:32:28;18.33;;;11.17;;
6642;SDS011;3357;48.050;7.800;2023-06-22T07:34:53;18.80;;;11.57;;
6642;SDS011;3357;48.050;7.800;2023-06-22T07:37:19;19.70;;;11.23;;
6642;SDS011;3357;48.050;7.800;2023-06-22T07:39:44;17.93;;;11.00;;
6642;SDS011;3357;48.050;7.800;2023-06-22T07:42:09;19.90;;;11.33;;
6642;SDS011;3357;48.050;7.800;2023-06-22T07:44:35;18.70;;;10.67;;
6642;SDS011;3357;48.050;7.800;2023-06-22T07:47:00;18.03;;;10.53;;
6642;SDS011;3357;48.050;7.800;2023-06-22T07:49:25;16.17;;;10.50;;
6642;SDS011;3357;48.050;7.800;2023-06-22T07:51:52;14.63;;;10.03;;
6642;SDS011;3357;48.050;7.800;2023-06-22T07:54:17;17.97;;;10.50;;
6642;SDS011;3357;48.050;7.800;2023-06-22T07:56:43;18.60;;;9.90;;
6642;SDS011;3357;48.050;7.800;2023-06-22T07:59:08;16.43;;;9.23;;
6642;SDS011;3357;48.050;7.800;2023-06-22T08:01:33;14.53;;;9.03;;
6642;SDS011;3357;48.050;7.800;2023-06-22T08:03:58;16.30;;;9.30;;
6642;SDS011;3357;48.050;7.800;2023-06-22T08:06:24;14.73;;;8.77;;
6642;SDS011;3357;48.050;7.800;2023-06-22T08:08:49;15.30;;;8.67;;
6642;SDS011;3357;48.050;7.800;2023-06-22T08:11:17;28.43;;;9.37;;
6642;SDS011;3357;48.050;7.800;2023-06-22T08:13:43;17.83;;;7.20;;
6642;SDS011;3357;48.050;7.800;2023-06-22T08:16:08;15.50;;;7.67;;
6642;SDS011;3357;48.050;7.800;2023-06-22T08:18:33;10.50;;;7.47;;
6642;SDS011;3357;48.050;7.800;2023-06-22T08:20:59;13.10;;;8.33;;
6642;SDS011;3357;48.050;7.800;2023-06-22T08:23:24;10.63;;;5.93;;
6642;SDS011;3357;48.050;7.800;2023-06-22T08:25:49;12.70;;;6.47;;
6642;SDS011;3357;48.050;7.800;2023-06-22T08:28:15;9.40;;;6.27;;
6642;SDS011;3357;48.050;7.800;2023-06-22T08:30:40;10.47;;;5.80;;
6642;SDS011;3357;48.050;7.800;2023-06-22T08:33:05;15.67;;;6.00;;
6642;SDS011;3357;48.050;7.800;2023-06-22T08:35:31;9.43;;;6.37;;
6642;SDS011;3357;48.050;7.800;2023-06-22T08:37:56;8.33;;;5.60;;
6642;SDS011;3357;48.050;7.800;2023-06-22T08:40:22;9.70;;;5.70;;
6642;SDS011;3357;48.050;7.800;2023-06-22T08:42:48;8.70;;;5.83;;
6642;SDS011;3357;48.050;7.800;2023-06-22T08:45:13;14.30;;;5.80;;
6642;SDS011;3357;48.050;7.800;2023-06-22T08:47:39;11.40;;;6.10;;
6642;SDS011;3357;48.050;7.800;2023-06-22T08:50:06;16.17;;;6.70;;
6642;SDS011;3357;48.050;7.800;2023-06-22T08:52:33;6.90;;;5.47;;
6642;SDS011;3357;48.050;7.800;2023-06-22T08:54:58;8.97;;;5.50;;
6642;SDS011;3357;48.050;7.800;2023-06-22T08:57:23;11.67;;;6.00;;
6642;SDS011;3357;48.050;7.800;2023-06-22T08:59:49;8.13;;;5.30;;
6642;SDS011;3357;48.050;7.800;2023-06-22T09:02:17;16.40;;;6.33;;
6642;SDS011;3357;48.050;7.800;2023-06-22T09:04:42;11.50;;;5.50;;
6642;SDS011;3357;48.050;7.800;2023-06-22T09:07:07;5.90;;;4.90;;
6642;SDS011;3357;48.050;7.800;2023-06-22T09:09:33;9.53;;;5.57;;
6642;SDS011;3357;48.050;7.800;2023-06-22T09:11:58;8.20;;;5.40;;
6642;SDS011;3357;48.050;7.800;2023-06-22T09:14:23;20.23;;;5.80;;
6642;SDS011;3357;48.050;7.800;2023-06-22T09:16:48;11.40;;;5.10;;
6642;SDS011;3357;48.050;7.800;2023-06-22T09:19:14;11.80;;;5.30;;
6642;SDS011;3357;48.050;7.800;2023-06-22T09:21:39;11.17;;;5.37;;
6642;SDS011;3357;48.050;7.800;2023-06-22T09:24:04;9.73;;;5.93;;
6642;SDS011;3357;48.050;7.800;2023-06-22T09:26:30;9.13;;;4.93;;
6642;SDS011;3357;48.050;7.800;2023-06-22T09:28:55;10.90;;;6.27;;
6642;SDS011;3357;48.050;7.800;2023-06-22T09:31:20;11.87;;;5.47;;
6642;SDS011;3357;48.050;7.800;2023-06-22T09:33:52;10.10;;;5.63;;
6642;SDS011;3357;48.050;7.800;2023-06-22T09:36:19;14.47;;;5.50;;
6642;SDS011;3357;48.050;7.800;2023-06-22T09:38:44;11.17;;;5.97;;
6642;SDS011;3357;48.050;7.800;2023-06-22T09:41:09;14.60;;;5.80;;
6642;SDS011;3357;48.050;7.800;2023-06-22T09:43:34;11.03;;;5.47;;
6642;SDS011;3357;48.050;7.800;2023-06-22T09:46:01;16.37;;;5.30;;
6642;SDS011;3357;48.050;7.800;2023-06-22T09:48:27;19.33;;;5.47;;
6642;SDS011;3357;48.050;7.800;2023-06-22T09:50:53;12.40;;;5.20;;
6642;SDS011;3357;48.050;7.800;2023-06-22T09:53:18;12.10;;;5.80;;
6642;SDS011;3357;48.050;7.800;2023-06-22T09:55:43;13.00;;;5.30;;
6642;SDS011;3357;48.050;7.800;2023-06-22T09:58:08;8.57;;;5.37;;
6642;SDS011;3357;48.050;7.800;2023-06-22T10:00:34;11.23;;;5.17;;
6642;SDS011;3357;48.050;7.800;2023-06-22T10:02:59;8.37;;;5.60;;
6642;SDS011;3357;48.050;7.800;2023-06-22T10:05:25;7.90;;;6.20;;
6642;SDS011;3357;48.050;7.800;2023-06-22T10:07:50;13.13;;;5.57;;
6642;SDS011;3357;48.050;7.800;2023-06-22T10:10:15;12.00;;;6.33;;
6642;SDS011;3357;48.050;7.800;2023-06-22T10:12:45;11.23;;;5.50;;
6642;SDS011;3357;48.050;7.800;2023-06-22T10:15:12;9.00;;;5.87;;
6642;SDS011;3357;48.050;7.800;2023-06-22T10:17:37;14.27;;;6.70;;
6642;SDS011;3357;48.050;7.800;2023-06-22T10:20:03;7.97;;;4.73;;
6642;SDS011;3357;48.050;7.800;2023-06-22T10:22:35;13.03;;;5.60;;
6642;SDS011;3357;48.050;7.800;2023-06-22T10:25:00;11.30;;;5.50;;
6642;SDS011;3357;48.050;7.800;2023-06-22T10:27:26;17.23;;;6.03;;
6642;SDS011;3357;48.050;7.800;2023-06-22T10:29:51;7.87;;;6.43;;
6642;SDS011;3357;48.050;7.800;2023-06-22T10:32:16;11.63;;;5.87;;
6642;SDS011;3357;48.050;7.800;2023-06-22T10:34:41;17.80;;;6.13;;
6642;SDS011;3357;48.050;7.800;2023-06-22T10:37:07;16.00;;;6.90;;
6642;SDS011;3357;48.050;7.800;2023-06-22T10:39:32;12.07;;;6.50;;
6642;SDS011;3357;48.050;7.800;2023-06-22T10:41:57;14.93;;;6.03;;
6642;SDS011;3357;48.050;7.800;2023-06-22T10:44:22;9.67;;;5.93;;
6642;SDS011;3357;48.050;7.800;2023-06-22T10:46:48;9.70;;;5.60;;
6642;SDS011;3357;48.050;7.800;2023-06-22T10:49:13;11.17;;;5.97;;
6642;SDS011;3357;48.050;7.800;2023-06-22T10:51:38;9.20;;;5.73;;
6642;SDS011;3357;48.050;7.800;2023-06-22T10:54:03;12.40;;;5.43;;
6642;SDS011;3357;48.050;7.800;2023-06-22T10:56:29;12.00;;;6.27;;
6642;SDS011;3357;48.050;7.800;2023-06-22T10:58:54;8.60;;;5.53;;
6642;SDS011;3357;48.050;7.800;2023-06-22T11:01:20;10.30;;;6.13;;
6642;SDS011;3357;48.050;7.800;2023-06-22T11:03:45;12.10;;;7.73;;
6642;SDS011;3357;48.050;7.800;2023-06-22T11:06:10;11.80;;;7.00;;
6642;SDS011;3357;48.050;7.800;2023-06-22T11:08:36;11.87;;;7.17;;
6642;SDS011;3357;48.050;7.800;2023-06-22T11:11:01;10.67;;;6.10;;
6642;SDS011;3357;48.050;7.800;2023-06-22T11:13:26;12.67;;;6.60;;
6642;SDS011;3357;48.050;7.800;2023-06-22T11:15:52;12.40;;;6.57;;
6642;SDS011;3357;48.050;7.800;2023-06-22T11:18:17;9.37;;;6.60;;
6642;SDS011;3357;48.050;7.800;2023-06-22T11:20:42;9.87;;;6.57;;
6642;SDS011;3357;48.050;7.800;2023-06-22T11:23:08;8.80;;;6.50;;
6642;SDS011;3357;48.050;7.800;2023-06-22T11:25:33;8.70;;;6.17;;
6642;SDS011;3357;48.050;7.800;2023-06-22T11:28:01;11.70;;;6.23;;
6642;SDS011;3357;48.050;7.800;2023-06-22T11:30:27;13.03;;;7.03;;
6642;SDS011;3357;48.050;7.800;2023-06-22T11:32:52;11.60;;;7.17;;
6642;SDS011;3357;48.050;7.800;2023-06-22T11:35:17;13.40;;;6.93;;
6642;SDS011;3357;48.050;7.800;2023-06-22T11:37:43;17.00;;;7.27;;
6642;SDS011;3357;48.050;7.800;2023-06-22T11:40:08;15.20;;;7.43;;
6642;SDS011;3357;48.050;7.800;2023-06-22T11:42:34;13.23;;;6.80;;
6642;SDS011;3357;48.050;7.800;2023-06-22T11:44:59;11.50;;;7.00;;
6642;SDS011;3357;48.050;7.800;2023-06-22T11:47:25;16.37;;;7.67;;
6642;SDS011;3357;48.050;7.800;2023-06-22T11:49:50;10.50;;;6.10;;
6642;SDS011;3357;48.050;7.800;2023-06-22T11:52:15;10.57;;;7.80;;
6642;SDS011;3357;48.050;7.800;2023-06-22T11:54:42;20.67;;;7.13;;
6642;SDS011;3357;48.050;7.800;2023-06-22T11:57:08;14.37;;;7.00;;
6642;SDS011;3357;48.050;7.800;2023-06-22T11:59:33;19.20;;;7.10;;
6642;SDS011;3357;48.050;7.800;2023-06-22T12:01:59;20.73;;;7.03;;
6642;SDS011;3357;48.050;7.800;2023-06-22T12:04:24;8.33;;;6.60;;
6642;SDS011;3357;48.050;7.800;2023-06-22T12:06:50;11.10;;;6.03;;
6642;SDS011;3357;48.050;7.800;2023-06-22T12:09:15;9.40;;;6.23;;
6642;SDS011;3357;48.050;7.800;2023-06-22T12:11:40;11.73;;;6.80;;
6642;SDS011;3357;48.050;7.800;2023-06-22T12:14:05;8.93;;;6.93;;
6642;SDS011;3357;48.050;7.800;2023-06-22T12:16:31;19.50;;;6.80;;
6642;SDS011;3357;48.050;7.800;2023-06-22T12:18:56;8.70;;;6.30;;
6642;SDS011;3357;48.050;7.800;2023-06-22T12:21:21;16.80;;;6.83;;
6642;SDS011;3357;48.050;7.800;2023-06-22T12:23:46;11.63;;;6.43;;
6642;SDS011;3357;48.050;7.800;2023-06-22T12:26:12;11.70;;;6.23;;
6642;SDS011;3357;48.050;7.800;2023-06-22T12:28:37;18.73;;;7.30;;
6642;SDS011;3357;48.050;7.800;2023-06-22T12:31:02;10.63;;;7.30;;
6642;SDS011;3357;48.050;7.800;2023-06-22T12:33:27;14.43;;;7.10;;
6642;SDS011;3357;48.050;7.800;2023-06-22T12:35:53;12.53;;;7.10;;
6642;SDS011;3357;48.050;7.800;2023-06-22T12:38:18;12.70;;;6.60;;
6642;SDS011;3357;48.050;7.800;2023-06-22T12:40:43;17.17;;;5.80;;
6642;SDS011;3357;48.050;7.800;2023-06-22T12:43:08;12.03;;;6.03;;
6642;SDS011;3357;48.050;7.800;2023-06-22T12:45:34;11.60;;;5.80;;
6642;SDS011;3357;48.050;7.800;2023-06-22T12:47:59;20.87;;;6.00;;
6642;SDS011;3357;48.050;7.800;2023-06-22T12:50:25;12.27;;;5.87;;
6642;SDS011;3357;48.050;7.800;2023-06-22T12:52:50;8.80;;;5.30;;
6642;SDS011;3357;48.050;7.800;2023-06-22T12:55:15;9.63;;;5.73;;
6642;SDS011;3357;48.050;7.800;2023-06-22T12:57:40;11.03;;;6.03;;
6642;SDS011;3357;48.050;7.800;2023-06-22T13:00:06;13.50;;;5.13;;
6642;SDS011;3357;48.050;7.800;2023-06-22T13:02:33;11.47;;;4.70;;
6642;SDS011;3357;48.050;7.800;2023-06-22T13:04:58;12.77;;;4.90;;
6642;SDS011;3357;48.050;7.800;2023-06-22T13:07:24;15.83;;;5.33;;
6642;SDS011;3357;48.050;7.800;2023-06-22T13:09:49;14.07;;;5.33;;
6642;SDS011;3357;48.050;7.800;2023-06-22T13:12:18;9.10;;;4.70;;
6642;SDS011;3357;48.050;7.800;2023-06-22T13:14:44;17.60;;;4.77;;
6642;SDS011;3357;48.050;7.800;2023-06-22T13:17:11;11.53;;;4.30;;
6642;SDS011;3357;48.050;7.800;2023-06-22T13:19:37;10.43;;;5.10;;
6642;SDS011;3357;48.050;7.800;2023-06-22T13:22:02;9.90;;;4.47;;
6642;SDS011;3357;48.050;7.800;2023-06-22T13:24:28;10.47;;;4.63;;
6642;SDS011;3357;48.050;7.800;2023-06-22T13:26:54;16.70;;;5.40;;
6642;SDS011;3357;48.050;7.800;2023-06-22T13:29:19;23.53;;;5.90;;
6642;SDS011;3357;48.050;7.800;2023-06-22T13:31:45;10.80;;;5.00;;
6642;SDS011;3357;48.050;7.800;2023-06-22T13:34:10;14.13;;;5.00;;
6642;SDS011;3357;48.050;7.800;2023-06-22T13:36:35;11.83;;;5.27;;
6642;SDS011;3357;48.050;7.800;2023-06-22T13:39:01;12.63;;;5.40;;
6642;SDS011;3357;48.050;7.800;2023-06-22T13:41:26;12.77;;;5.03;;
6642;SDS011;3357;48.050;7.800;2023-06-22T13:43:51;12.53;;;5.13;;
6642;SDS011;3357;48.050;7.800;2023-06-22T13:46:17;15.60;;;5.57;;
6642;SDS011;3357;48.050;7.800;2023-06-22T13:48:42;13.23;;;5.57;;
6642;SDS011;3357;48.050;7.800;2023-06-22T13:51:07;17.70;;;5.20;;
6642;SDS011;3357;48.050;7.800;2023-06-22T13:53:32;16.83;;;5.23;;
6642;SDS011;3357;48.050;7.800;2023-06-22T13:55:58;14.57;;;5.73;;
6642;SDS011;3357;48.050;7.800;2023-06-22T13:58:23;14.57;;;4.80;;
6642;SDS011;3357;48.050;7.800;2023-06-22T14:00:48;16.20;;;5.00;;
6642;SDS011;3357;48.050;7.800;2023-06-22T14:03:14;10.37;;;4.67;;
6642;SDS011;3357;48.050;7.800;2023-06-22T14:05:41;11.13;;;4.90;;
6642;SDS011;3357;48.050;7.800;2023-06-22T14:08:06;12.33;;;5.00;;
6642;SDS011;3357;48.050;7.800;2023-06-22T14:10:31;22.50;;;5.97;;
6642;SDS011;3357;48.050;7.800;2023-06-22T14:12:57;13.17;;;5.17;;
6642;SDS011;3357;48.050;7.800;2023-06-22T14:15:22;9.03;;;4.67;;
6642;SDS011;3357;48.050;7.800;2023-06-22T14:17:47;13.30;;;4.70;;
6642;SDS011;3357;48.050;7.800;2023-06-22T14:20:12;20.40;;;4.23;;
6642;SDS011;3357;48.050;7.800;2023-06-22T14:22:38;8.10;;;4.47;;
6642;SDS011;3357;48.050;7.800;2023-06-22T14:25:05;10.50;;;4.70;;
6642;SDS011;3357;48.050;7.800;2023-06-22T14:27:30;10.27;;;4.50;;
6642;SDS011;3357;48.050;7.800;2023-06-22T14:29:56;13.00;;;4.43;;
6642;SDS011;3357;48.050;7.800;2023-06-22T14:32:21;17.53;;;7.10;;
6642;SDS011;3357;48.050;7.800;2023-06-22T14:34:46;23.43;;;9.93;;
6642;SDS011;3357;48.050;7.800;2023-06-22T14:37:11;18.30;;;4.40;;
6642;SDS011;3357;48.050;7.800;2023-06-22T14:39:40;14.83;;;4.93;;
6642;SDS011;3357;48.050;7.800;2023-06-22T14:42:05;8.87;;;4.17;;
6642;SDS011;3357;48.050;7.800;2023-06-22T14:44:30;15.00;;;4.77;;
6642;SDS011;3357;48.050;7.800;2023-06-22T14:46:56;10.70;;;4.27;;
6642;SDS011;3357;48.050;7.800;2023-06-22T14:49:21;12.40;;;4.30;;
6642;SDS011;3357;48.050;7.800;2023-06-22T14:51:47;11.33;;;4.60;;